Pays
Station

 

Conditions  météo  pour  Mansfield, Mansfield Lahm Municipal Airport  -  Etats-Unis    Etats-Unis

  
23 °C
    
 
 

METAR pour Mansfield, Mansfield Lahm Municipal Airport :

KMFD 161952Z 19014G21KT 6SM BR OVC015 23/21 A3005 RMK AO2 SLP166 T02280206

 

Voici le bulletin pour Mansfield, Mansfield Lahm Municipal Airport - Etats-Unis.
 
Le bulletin a été fait il y a 12 minutes, à 19:52 UTC .
Le vent soufflait à la vitesse de 7.2 mètres par seconde avec des rafales jusqu'à 10.8 mètres par seconde de Sud (190°).
 
La température était de 23 °C, avec un point de rosée à 21 °C.
La température ressentie était de 22 °C.
 
La pression atmosphérique était de 1018 hPa.
L'humidité relative était de 88.5%.
 
Le ciel était nuageux à partir d'une hauteur de 457 mètres
 
La visibilité globale était de 9.7 kilomètres.
 
Actuellement brume.

 
 
 

Pays :   A   B   C   D   E   F   G   H   I   J   K   L   M   N   O   P   Q   R   S   T   U   V   W   Y   Z

 

Partenaires :  Info Météo avec Met'info
Météo Marine avec MeteoMarine.net
Infos Site  |  Infos Légales  |  Crédits  |  Confidentialité
Contactez-nous  |  Ajouter aux favoris
© 2013-2018 METAR - Tous droits réservés